sensor_id;sensor_type;location;lat;lon;timestamp;pressure;altitude;pressure_sealevel;temperature;humidity
61136;BME280;47021;51.340;12.432;2023-08-24T00:37:58;100401.19;;;23.87;56.72
61136;BME280;47021;51.340;12.432;2023-08-24T00:40:44;100396.66;;;23.88;57.16
61136;BME280;47021;51.340;12.432;2023-08-24T00:43:18;100397.47;;;23.81;57.16
61136;BME280;47021;51.340;12.432;2023-08-24T00:48:33;100405.50;;;23.62;57.84
61136;BME280;47021;51.340;12.432;2023-08-24T00:51:11;100401.34;;;24.05;56.14
61136;BME280;47021;51.340;12.432;2023-08-24T00:53:45;100400.97;;;24.15;56.28
61136;BME280;47021;51.340;12.432;2023-08-24T00:56:15;100404.47;;;24.09;56.49
61136;BME280;47021;51.340;12.432;2023-08-24T00:58:55;100406.31;;;24.02;56.58
61136;BME280;47021;51.340;12.432;2023-08-24T01:01:21;100404.03;;;24.18;56.45
61136;BME280;47021;51.340;12.432;2023-08-24T01:06:38;100408.38;;;23.73;57.07
61136;BME280;47021;51.340;12.432;2023-08-24T01:14:46;100417.16;;;23.48;58.45
61136;BME280;47021;51.340;12.432;2023-08-24T01:17:15;100418.00;;;23.42;58.47
61136;BME280;47021;51.340;12.432;2023-08-24T01:25:13;100407.75;;;23.71;57.42
61136;BME280;47021;51.340;12.432;2023-08-24T01:27:44;100404.06;;;23.92;56.55
61136;BME280;47021;51.340;12.432;2023-08-24T01:30:17;100403.44;;;23.57;56.70
61136;BME280;47021;51.340;12.432;2023-08-24T01:32:49;100412.06;;;23.53;57.42
61136;BME280;47021;51.340;12.432;2023-08-24T01:38:14;100404.44;;;23.43;57.77
61136;BME280;47021;51.340;12.432;2023-08-24T01:43:26;100401.19;;;23.67;57.06
61136;BME280;47021;51.340;12.432;2023-08-24T01:45:56;100399.75;;;23.58;57.20
61136;BME280;47021;51.340;12.432;2023-08-24T01:51:09;100405.09;;;23.58;57.13
61136;BME280;47021;51.340;12.432;2023-08-24T01:53:35;100401.78;;;23.43;57.62
61136;BME280;47021;51.340;12.432;2023-08-24T01:58:45;100410.13;;;23.14;58.26
61136;BME280;47021;51.340;12.432;2023-08-24T02:01:18;100409.28;;;23.20;58.17
61136;BME280;47021;51.340;12.432;2023-08-24T02:03:44;100405.16;;;22.98;58.84
61136;BME280;47021;51.340;12.432;2023-08-24T02:06:13;100406.63;;;23.20;58.16
61136;BME280;47021;51.340;12.432;2023-08-24T02:11:22;100397.41;;;23.29;57.79
61136;BME280;47021;51.340;12.432;2023-08-24T02:16:17;100395.19;;;23.26;58.44
61136;BME280;47021;51.340;12.432;2023-08-24T02:18:59;100391.47;;;23.27;57.77
61136;BME280;47021;51.340;12.432;2023-08-24T02:21:26;100387.63;;;23.36;57.88
61136;BME280;47021;51.340;12.432;2023-08-24T02:24:01;100391.34;;;23.42;57.55
61136;BME280;47021;51.340;12.432;2023-08-24T02:26:38;100384.31;;;23.21;58.02
61136;BME280;47021;51.340;12.432;2023-08-24T02:31:58;100389.28;;;23.57;57.22
61136;BME280;47021;51.340;12.432;2023-08-24T02:34:25;100382.50;;;23.54;57.36
61136;BME280;47021;51.340;12.432;2023-08-24T02:36:54;100391.25;;;23.09;58.33
61136;BME280;47021;51.340;12.432;2023-08-24T02:39:22;100379.19;;;23.26;58.29
61136;BME280;47021;51.340;12.432;2023-08-24T02:41:47;100381.41;;;23.03;59.16
61136;BME280;47021;51.340;12.432;2023-08-24T02:44:24;100390.00;;;22.98;58.99
61136;BME280;47021;51.340;12.432;2023-08-24T02:46:54;100385.88;;;22.96;59.37
61136;BME280;47021;51.340;12.432;2023-08-24T02:49:25;100382.81;;;22.99;58.96
61136;BME280;47021;51.340;12.432;2023-08-24T02:51:53;100386.25;;;22.86;59.43
61136;BME280;47021;51.340;12.432;2023-08-24T02:57:04;100379.03;;;22.74;60.24
61136;BME280;47021;51.340;12.432;2023-08-24T02:59:37;100372.28;;;22.71;59.49
61136;BME280;47021;51.340;12.432;2023-08-24T03:02:19;100380.72;;;22.81;59.71
61136;BME280;47021;51.340;12.432;2023-08-24T03:04:44;100377.84;;;22.83;59.37
61136;BME280;47021;51.340;12.432;2023-08-24T03:07:24;100381.75;;;22.87;59.95
61136;BME280;47021;51.340;12.432;2023-08-24T03:09:52;100380.06;;;22.73;60.35
61136;BME280;47021;51.340;12.432;2023-08-24T03:12:17;100379.00;;;23.34;58.46
61136;BME280;47021;51.340;12.432;2023-08-24T03:14:42;100370.31;;;23.06;58.90
61136;BME280;47021;51.340;12.432;2023-08-24T03:17:14;100374.00;;;22.98;59.27
61136;BME280;47021;51.340;12.432;2023-08-24T03:22:27;100369.69;;;22.91;59.00
61136;BME280;47021;51.340;12.432;2023-08-24T03:24:52;100368.69;;;22.98;59.01
61136;BME280;47021;51.340;12.432;2023-08-24T03:27:17;100366.63;;;23.00;58.59
61136;BME280;47021;51.340;12.432;2023-08-24T03:29:42;100373.56;;;22.82;59.25
61136;BME280;47021;51.340;12.432;2023-08-24T03:32:19;100375.50;;;22.60;59.45
61136;BME280;47021;51.340;12.432;2023-08-24T03:37:32;100375.03;;;22.50;59.69
61136;BME280;47021;51.340;12.432;2023-08-24T03:40:15;100371.25;;;22.66;59.69
61136;BME280;47021;51.340;12.432;2023-08-24T03:42:53;100367.00;;;22.78;59.49
61136;BME280;47021;51.340;12.432;2023-08-24T03:45:32;100364.50;;;22.76;59.73
61136;BME280;47021;51.340;12.432;2023-08-24T03:48:17;100353.47;;;22.86;59.05
61136;BME280;47021;51.340;12.432;2023-08-24T03:50:54;100366.50;;;22.61;59.67
61136;BME280;47021;51.340;12.432;2023-08-24T03:53:28;100358.22;;;22.43;59.94
61136;BME280;47021;51.340;12.432;2023-08-24T03:58:19;100366.47;;;22.55;60.24
61136;BME280;47021;51.340;12.432;2023-08-24T04:00:45;100359.06;;;22.50;59.82
61136;BME280;47021;51.340;12.432;2023-08-24T04:03:10;100354.75;;;22.49;60.14
61136;BME280;47021;51.340;12.432;2023-08-24T04:05:36;100361.13;;;22.48;60.33
61136;BME280;47021;51.340;12.432;2023-08-24T04:10:49;100358.66;;;22.12;61.37
61136;BME280;47021;51.340;12.432;2023-08-24T04:13:32;100362.44;;;22.31;60.87
61136;BME280;47021;51.340;12.432;2023-08-24T04:16:12;100361.53;;;22.11;61.67
61136;BME280;47021;51.340;12.432;2023-08-24T04:18:37;100365.19;;;22.10;61.23
61136;BME280;47021;51.340;12.432;2023-08-24T04:23:47;100359.03;;;22.43;60.87
61136;BME280;47021;51.340;12.432;2023-08-24T04:26:16;100368.88;;;22.43;60.23
61136;BME280;47021;51.340;12.432;2023-08-24T04:28:54;100363.72;;;22.41;60.17
61136;BME280;47021;51.340;12.432;2023-08-24T04:31:20;100360.63;;;22.38;60.09
61136;BME280;47021;51.340;12.432;2023-08-24T04:33:54;100363.19;;;22.59;59.67
61136;BME280;47021;51.340;12.432;2023-08-24T04:36:19;100373.38;;;22.49;59.57
61136;BME280;47021;51.340;12.432;2023-08-24T04:38:45;100370.34;;;22.52;59.98
61136;BME280;47021;51.340;12.432;2023-08-24T04:41:16;100370.88;;;22.34;59.79
61136;BME280;47021;51.340;12.432;2023-08-24T04:46:25;100375.16;;;22.76;59.20
61136;BME280;47021;51.340;12.432;2023-08-24T04:49:03;100370.28;;;22.80;58.97
61136;BME280;47021;51.340;12.432;2023-08-24T04:51:37;100371.28;;;22.79;58.86
61136;BME280;47021;51.340;12.432;2023-08-24T04:54:09;100371.47;;;22.71;58.67
61136;BME280;47021;51.340;12.432;2023-08-24T04:56:35;100375.75;;;22.72;59.37
61136;BME280;47021;51.340;12.432;2023-08-24T04:59:02;100373.59;;;23.01;58.35
61136;BME280;47021;51.340;12.432;2023-08-24T05:01:44;100364.75;;;22.88;58.26
61136;BME280;47021;51.340;12.432;2023-08-24T05:04:16;100367.63;;;22.93;58.32
61136;BME280;47021;51.340;12.432;2023-08-24T05:06:43;100376.59;;;22.79;59.07
61136;BME280;47021;51.340;12.432;2023-08-24T05:09:21;100369.84;;;22.83;58.11
61136;BME280;47021;51.340;12.432;2023-08-24T05:14:37;100373.31;;;22.70;59.20
61136;BME280;47021;51.340;12.432;2023-08-24T05:17:08;100369.19;;;22.68;59.57
61136;BME280;47021;51.340;12.432;2023-08-24T05:19:46;100366.84;;;23.05;58.75
61136;BME280;47021;51.340;12.432;2023-08-24T05:22:16;100367.41;;;22.94;58.61
61136;BME280;47021;51.340;12.432;2023-08-24T05:24:44;100374.81;;;22.99;58.24
61136;BME280;47021;51.340;12.432;2023-08-24T05:29:54;100368.47;;;22.93;58.74
61136;BME280;47021;51.340;12.432;2023-08-24T05:32:36;100372.81;;;23.34;58.32
61136;BME280;47021;51.340;12.432;2023-08-24T05:40:39;100361.56;;;23.91;57.05
61136;BME280;47021;51.340;12.432;2023-08-24T05:43:22;100360.94;;;24.02;56.43
61136;BME280;47021;51.340;12.432;2023-08-24T05:45:53;100360.88;;;24.28;56.47
61136;BME280;47021;51.340;12.432;2023-08-24T05:51:02;100369.97;;;24.71;55.22
61136;BME280;47021;51.340;12.432;2023-08-24T05:53:40;100368.53;;;24.69;55.09
61136;BME280;47021;51.340;12.432;2023-08-24T05:56:11;100355.81;;;24.77;54.80
61136;BME280;47021;51.340;12.432;2023-08-24T05:58:48;100355.69;;;24.97;54.37
61136;BME280;47021;51.340;12.432;2023-08-24T06:01:26;100354.75;;;25.16;54.28
61136;BME280;47021;51.340;12.432;2023-08-24T06:04:07;100362.22;;;25.01;54.38
61136;BME280;47021;51.340;12.432;2023-08-24T06:06:38;100355.69;;;24.97;54.77
61136;BME280;47021;51.340;12.432;2023-08-24T06:09:06;100352.78;;;25.05;54.59
61136;BME280;47021;51.340;12.432;2023-08-24T08:12:55;100305.81;;;30.95;38.78
61136;BME280;47021;51.340;12.432;2023-08-24T08:15:21;100305.97;;;31.15;37.74
61136;BME280;47021;51.340;12.432;2023-08-24T08:17:51;100300.03;;;31.45;38.38
61136;BME280;47021;51.340;12.432;2023-08-24T08:20:18;100292.44;;;31.79;38.21
